ENBR/BGO METAR and TAF weather

Enter ICAO airport designator
Station Type Date Time Source
ENBR METAR 2022/05/23 15:20 UTC NOAA

ENBR 231520Z 15014KT 9999 -RA FEW010 SCT020 BKN035 12/09 Q1002 TEMPO RA RMK WIND 1200FT 15024KT


Station Type Date Time Source
ENBR Decoded METAR 2022/05/23 15:20 UTC NOAA

Bergen / Flesland, Norway (ENBR) 60-17N 005-14E 50M
May 23, 2022 - 11:20 AM EDT / 2022.05.23 1520 UTC
Wind: from the SSE (150 degrees) at 16 MPH (14 KT):0
Visibility: greater than 7 mile(s):0
Sky conditions: mostly cloudy
Weather: light rain
Temperature: 53 F (12 C)
Dew Point: 48 F (9 C)
Relative Humidity: 81%
Pressure (altimeter): 29.59 in. Hg (1002 hPa)
ob: ENBR 231520Z 15014KT 9999 -RA FEW010 SCT020 BKN035 12/09 Q1002 TEMPO RA RMK WIND 1200FT 15024KT
cycle: 15

Station Type Date Time Source
ENBR TAF 2022/05/23 12:58 UTC NOAA

TAF ENBR 231100Z 2312/2412 17015KT 9999 -RA FEW008 BKN025
TEMPO 2312/2314 RA BKN012
BECMG 2316/2318 16005KT

Example: see airport list